Time;durP1;ratioP1;P1;durP2;ratioP2;P2;SDS_P1;SDS_P2;PMS_P1;PMS_P2;Temp;Humidity;BMP_temperature;BMP_pressure;BME280_temperature;BME280_humidity;BME280_pressure;Samples;Min_cycle;Max_cycle;Signal;HPM_P1;HPM_P2
2022/02/07 00:01:30;;;;;;;4.70;2.40;;;;;;;4.07;64.67;94594.77;1798197;79;21018;-73
2022/02/07 00:03:55;;;;;;;3.10;2.27;;;;;;;4.09;64.85;94589.95;1757369;81;21013;-73
2022/02/07 00:06:18;;;;;;;9.07;3.40;;;;;;;4.03;64.72;94591.34;1757908;81;21057;-73
2022/02/07 00:08:46;;;;;;;4.33;2.97;;;;;;;4.28;62.74;94597.59;1742576;82;20991;-73
2022/02/07 00:11:14;;;;;;;3.97;2.50;;;;;;;4.51;61.79;94576.03;1750958;82;20998;-73
2022/02/07 00:13:42;;;;;;;2.53;1.80;;;;;;;4.54;62.45;94597.33;1750610;82;21062;-73
2022/02/07 00:16:08;;;;;;;4.57;2.73;;;;;;;4.63;61.10;94586.75;1750929;82;21065;-73
2022/02/07 00:18:37;;;;;;;4.63;2.90;;;;;;;4.84;60.71;94586.95;1750834;82;21090;-73
2022/02/07 00:21:04;;;;;;;4.20;3.23;;;;;;;4.89;60.63;94590.79;1750724;81;21047;-73
2022/02/07 00:23:31;;;;;;;3.77;2.50;;;;;;;4.91;59.89;94575.95;1750573;81;21019;-73
2022/02/07 00:25:58;;;;;;;4.57;2.40;;;;;;;4.88;60.29;94562.48;1750994;82;21031;-73
2022/02/07 00:28:25;;;;;;;4.03;2.57;;;;;;;4.93;60.23;94561.13;1750739;82;21034;-73
2022/02/07 00:30:51;;;;;;;5.53;2.47;;;;;;;4.92;60.11;94562.88;1751111;81;21002;-72
2022/02/07 00:33:19;;;;;;;4.17;2.30;;;;;;;5.05;59.75;94562.27;1750795;82;21045;-73
2022/02/07 00:35:45;;;;;;;3.63;2.70;;;;;;;5.17;59.65;94550.33;1750501;82;21414;-73
2022/02/07 00:38:17;;;;;;;7.13;3.00;;;;;;;5.08;60.08;94550.45;1750586;82;21014;-73
2022/02/07 00:40:56;;;;;;;5.20;2.80;;;;;;;5.07;59.83;94546.57;1721138;82;21524;-73
2022/02/07 00:43:28;;;;;;;4.00;2.53;;;;;;;5.02;60.22;94545.33;1748090;82;21095;-73
2022/02/07 00:46:03;;;;;;;3.40;2.40;;;;;;;4.92;60.44;94535.44;1748335;82;21019;-73
2022/02/07 00:48:24;;;;;;;4.43;2.67;;;;;;;4.81;60.60;94542.98;1743937;82;21043;-73
2022/02/07 00:50:55;;;;;;;4.90;2.40;;;;;;;4.88;61.05;94537.66;1750691;82;20995;-73
2022/02/07 00:53:21;;;;;;;2.80;1.97;;;;;;;4.96;60.77;94525.78;1750816;82;21477;-73
2022/02/07 00:55:49;;;;;;;3.90;2.00;;;;;;;4.93;60.89;94517.99;1750572;82;21130;-74
2022/02/07 00:58:16;;;;;;;4.40;2.17;;;;;;;4.87;61.04;94520.70;1770973;80;21042;-73
2022/02/07 01:00:43;;;;;;;4.47;2.67;;;;;;;4.81;61.50;94496.80;1790878;80;21030;-73
2022/02/07 01:03:10;;;;;;;3.10;2.53;;;;;;;5.03;61.44;94510.44;1790634;80;20974;-73
2022/02/07 01:05:37;;;;;;;3.00;2.20;;;;;;;5.09;61.38;94512.98;1790907;80;21085;-73
2022/02/07 01:08:05;;;;;;;3.60;2.47;;;;;;;5.17;61.15;94530.72;1789870;80;21015;-73
2022/02/07 01:13:22;;;;;;;3.30;1.90;;;;;;;5.05;61.90;94496.91;1790568;80;21018;-73
2022/02/07 01:53:19;;;;;;;4.53;2.67;;;;;;;4.11;72.99;94433.33;1780026;81;21094;-73
2022/02/07 01:55:44;;;;;;;7.00;2.80;;;;;;;3.99;73.41;94435.64;1777975;81;21061;-74
2022/02/07 01:58:14;;;;;;;5.60;2.80;;;;;;;3.97;73.50;94428.27;1748984;81;21022;-74
2022/02/07 02:00:46;;;;;;;6.10;2.53;;;;;;;3.92;73.30;94422.68;1780007;81;20984;-74
2022/02/07 02:03:15;;;;;;;4.07;2.33;;;;;;;3.84;72.95;94427.55;1780134;81;21003;-74
2022/02/07 02:05:43;;;;;;;3.70;2.63;;;;;;;3.71;75.78;94419.44;1780015;81;21046;-74
2022/02/07 02:08:17;;;;;;;2.97;2.33;;;;;;;3.68;74.64;94407.30;1778465;81;21034;-74
2022/02/07 02:10:49;;;;;;;4.47;2.17;;;;;;;3.66;74.49;94410.36;1751810;81;21525;-74
2022/02/07 02:13:20;;;;;;;3.27;2.30;;;;;;;3.63;75.60;94401.27;1779811;81;20979;-74
2022/02/07 02:16:00;;;;;;;3.80;2.10;;;;;;;3.63;75.78;94395.20;1779990;81;21030;-74
2022/02/07 02:37:21;;;;;;;1.97;1.77;;;;;;;3.74;75.96;94396.37;1779676;81;20991;-74
2022/02/07 02:45:32;;;;;;;3.20;1.80;;;;;;;3.69;77.24;94373.80;1779455;81;21003;-74
2022/02/07 02:48:02;;;;;;;2.40;1.47;;;;;;;3.66;77.79;94369.92;1779490;81;20987;-74
2022/02/07 02:50:34;;;;;;;2.83;1.70;;;;;;;3.66;77.60;94366.46;1779310;81;21019;-74
2022/02/07 02:53:08;;;;;;;1.47;1.03;;;;;;;3.68;77.38;94356.88;1779419;81;21082;-74
2022/02/07 02:55:40;;;;;;;1.30;1.20;;;;;;;3.71;77.95;94347.70;1778259;81;21022;-73
2022/02/07 02:58:11;;;;;;;1.00;0.90;;;;;;;3.66;77.57;94339.92;1779295;81;20959;-74
2022/02/07 03:00:40;;;;;;;1.40;0.60;;;;;;;3.56;78.47;94339.62;1751381;81;21015;-73
2022/02/07 03:03:09;;;;;;;0.33;0.33;;;;;;;3.55;78.91;94339.63;1778478;81;21010;-74
2022/02/07 03:05:35;;;;;;;1.47;0.50;;;;;;;3.57;78.56;94333.50;1779458;80;21003;-74
2022/02/07 03:08:02;;;;;;;0.83;0.57;;;;;;;3.56;78.54;94342.22;1779550;81;21058;-73
2022/02/07 03:10:41;;;;;;;0.30;0.30;;;;;;;3.55;78.12;94337.02;1779597;81;21015;-74
2022/02/07 03:13:08;;;;;;;0.77;0.60;;;;;;;3.55;78.42;94327.88;1777052;81;20999;-74
2022/02/07 03:18:12;;;;;;;0.27;0.23;;;;;;;3.41;79.56;94343.27;1779544;80;21458;-73
2022/02/07 03:20:39;;;;;;;0.30;0.30;;;;;;;3.42;78.97;94342.37;1779349;81;21011;-73
2022/02/07 03:23:05;;;;;;;0.47;0.30;;;;;;;3.37;79.74;94345.47;1779446;80;20996;-73
2022/02/07 03:25:33;;;;;;;0.30;0.30;;;;;;;3.42;79.49;94351.94;1779522;81;21003;-73
2022/02/07 03:28:01;;;;;;;0.70;0.30;;;;;;;3.40;79.31;94331.12;1779594;81;21039;-73
2022/02/07 03:30:30;;;;;;;0.20;0.20;;;;;;;3.35;79.83;94330.72;1781574;80;21031;-73
2022/02/07 03:32:57;;;;;;;2.17;0.60;;;;;;;3.26;80.14;94299.12;1784885;80;21034;-74
2022/02/07 03:35:24;;;;;;;2.33;0.20;;;;;;;3.23;80.58;94303.07;1784993;80;21535;-74
2022/02/07 03:37:51;;;;;;;0.50;0.30;;;;;;;3.16;79.99;94290.98;1784934;80;20991;-73
2022/02/07 03:40:18;;;;;;;0.20;0.20;;;;;;;3.04;81.44;94288.91;1784974;80;21030;-74
2022/02/07 03:42:46;;;;;;;0.20;0.20;;;;;;;3.09;80.88;94276.28;1784887;80;21033;-74
2022/02/07 03:45:13;;;;;;;0.20;0.20;;;;;;;3.09;80.65;94289.31;1784792;80;21018;-74
2022/02/07 03:47:41;;;;;;;0.60;0.20;;;;;;;3.06;80.89;94276.33;1784397;80;21516;-74
2022/02/07 03:50:10;;;;;;;0.20;0.20;;;;;;;3.04;81.30;94271.12;1784990;80;21019;-74
2022/02/07 03:52:39;;;;;;;0.20;0.20;;;;;;;3.09;80.87;94265.86;1784388;80;21034;-74
2022/02/07 03:55:07;;;;;;;0.20;0.20;;;;;;;3.07;80.89;94256.74;1784860;80;21031;-74
2022/02/07 03:57:34;;;;;;;0.20;0.20;;;;;;;3.12;80.79;94250.18;1784926;80;21002;-74
2022/02/07 04:00:05;;;;;;;0.63;0.30;;;;;;;3.20;80.63;94255.74;1784825;80;21357;-74
2022/02/07 04:02:39;;;;;;;0.50;0.20;;;;;;;3.28;80.26;94256.09;1783299;80;20963;-73
2022/02/07 04:05:37;;;;;;;0.10;0.10;;;;;;;3.30;80.01;94268.65;1784880;80;21003;-73
2022/02/07 04:07:40;;;;;;;0.20;0.20;;;;;;;3.34;80.39;94256.02;1781136;80;21483;-73
2022/02/07 04:10:08;;;;;;;1.17;0.20;;;;;;;3.31;80.25;94252.14;1784948;80;21503;-73
2022/02/07 04:12:35;;;;;;;0.10;0.10;;;;;;;3.27;80.62;94264.34;1784919;80;21018;-73
2022/02/07 04:15:02;;;;;;;1.73;0.30;;;;;;;3.30;80.41;94252.59;1784700;80;21038;-74
2022/02/07 04:17:30;;;;;;;0.77;0.30;;;;;;;3.37;80.22;94260.73;1758745;80;21014;-74
2022/02/07 04:20:02;;;;;;;0.37;0.37;;;;;;;3.47;80.15;94266.70;1784393;80;21022;-73
2022/02/07 04:22:36;;;;;;;1.23;0.60;;;;;;;3.51;80.40;94231.89;1776151;80;21011;-73
2022/02/07 04:25:14;;;;;;;2.60;1.47;;;;;;;3.54;80.25;94234.45;1782545;80;21020;-73
2022/02/07 04:27:46;;;;;;;16.27;8.80;;;;;;;3.57;80.11;94227.88;1783921;80;21090;-71
2022/02/07 04:30:13;;;;;;;1.47;0.67;;;;;;;3.55;80.70;94230.09;1782651;80;21054;-69
2022/02/07 04:32:42;;;;;;;34.63;18.70;;;;;;;3.62;80.40;94221.30;1779140;80;21114;-68
2022/02/07 04:35:10;;;;;;;1.20;0.83;;;;;;;3.59;80.77;94227.42;1779359;80;21042;-70
2022/02/07 04:37:37;;;;;;;4.33;2.90;;;;;;;3.63;80.41;94219.98;1779245;81;21485;-70
2022/02/07 04:40:07;;;;;;;1.13;0.90;;;;;;;3.62;80.56;94243.02;1779307;80;21074;-70
2022/02/07 04:42:36;;;;;;;1.50;1.20;;;;;;;3.65;80.57;94235.19;1778963;81;21034;-71
2022/02/07 04:45:26;;;;;;;1.30;0.97;;;;;;;3.69;81.07;94244.67;1779136;81;21465;-70
2022/02/07 04:55:49;;;;;;;2.60;1.63;;;;;;;3.80;81.11;94214.95;1779480;81;20986;-68
2022/02/07 04:58:28;;;;;;;1.70;1.40;;;;;;;3.87;81.06;94204.85;1778430;81;21048;-72
2022/02/07 05:00:50;;;;;;;1.53;1.00;;;;;;;3.90;81.06;94199.13;1776636;81;21079;-72
2022/02/07 05:03:17;;;;;;;3.90;1.90;;;;;;;3.90;80.97;94207.41;1778917;81;21027;-72
2022/02/07 05:16:28;;;;;;;2.07;1.10;;;;;;;3.96;80.01;94179.08;1779310;81;21500;-72
2022/02/07 05:19:05;;;;;;;1.63;1.30;;;;;;;3.97;79.75;94179.48;1777747;81;21010;-73
2022/02/07 05:21:41;;;;;;;2.30;1.20;;;;;;;3.92;79.74;94171.72;1778143;81;21019;-73
2022/02/07 05:24:09;;;;;;;1.43;1.23;;;;;;;3.92;79.83;94165.65;1763422;81;21504;-72
2022/02/07 05:26:41;;;;;;;3.53;2.20;;;;;;;3.93;79.51;94167.36;1765418;81;21030;-73
2022/02/07 05:29:15;;;;;;;6.20;2.30;;;;;;;3.96;79.33;94173.41;1778094;81;21285;-73
2022/02/07 05:31:52;;;;;;;3.80;2.53;;;;;;;4.06;78.86;94179.34;1777229;80;21034;-73
2022/02/07 05:34:24;;;;;;;2.30;2.00;;;;;;;4.12;78.80;94171.39;1747536;81;21090;-73
2022/02/07 05:36:57;;;;;;;2.77;1.98;;;;;;;4.10;78.85;94188.83;1779245;81;21046;-73
2022/02/07 05:39:32;;;;;;;2.20;2.00;;;;;;;4.09;78.75;94190.58;1777614;81;21014;-73
2022/02/07 05:42:03;;;;;;;4.27;2.50;;;;;;;4.09;78.92;94210.16;1777830;81;21500;-73
2022/02/07 05:44:39;;;;;;;3.07;2.10;;;;;;;4.20;78.58;94196.06;1777888;81;21034;-73
2022/02/07 05:47:11;;;;;;;3.83;2.30;;;;;;;4.19;78.55;94187.38;1778843;81;21041;-73
2022/02/07 05:49:45;;;;;;;3.97;2.23;;;;;;;4.21;78.42;94188.22;1767691;81;21023;-73
2022/02/07 05:52:14;;;;;;;3.83;3.43;;;;;;;4.30;78.23;94190.66;1776670;81;21023;-73
2022/02/07 05:54:57;;;;;;;4.17;2.83;;;;;;;4.30;78.40;94192.41;1753952;81;20979;-72
2022/02/07 05:57:28;;;;;;;2.47;2.13;;;;;;;4.31;78.33;94187.63;1777034;81;21018;-72
2022/02/07 06:00:07;;;;;;;3.37;2.13;;;;;;;4.27;78.82;94187.25;1777380;81;21524;-74
2022/02/07 06:02:43;;;;;;;3.83;2.83;;;;;;;4.28;78.71;94174.19;1778699;81;21657;-74
2022/02/07 06:05:18;;;;;;;2.73;1.63;;;;;;;4.24;78.70;94176.87;1776671;81;21050;-72
2022/02/07 06:07:45;;;;;;;2.20;1.57;;;;;;;4.24;78.54;94190.78;1777380;81;21074;-74
2022/02/07 06:10:12;;;;;;;3.67;1.80;;;;;;;4.25;78.40;94187.71;1777411;81;21034;-76
2022/02/07 06:12:40;;;;;;;2.60;2.07;;;;;;;4.30;78.25;94178.91;1777808;81;21109;-73
2022/02/07 06:15:08;;;;;;;2.63;2.07;;;;;;;4.30;78.06;94172.83;1778233;81;21304;-74
2022/02/07 06:17:36;;;;;;;4.43;3.00;;;;;;;4.31;77.91;94178.48;1778342;81;21458;-77
2022/02/07 06:20:05;;;;;;;2.93;2.20;;;;;;;4.34;77.47;94174.52;1777540;81;21053;-73
2022/02/07 06:22:33;;;;;;;8.43;5.90;;;;;;;4.37;77.61;94177.52;1778206;80;21100;-75
2022/02/07 06:25:03;;;;;;;6.53;5.17;;;;;;;4.36;77.67;94164.91;1777965;81;21586;-72
2022/02/07 06:27:30;;;;;;;6.03;3.57;;;;;;;4.34;77.69;94173.20;1779426;81;21500;-73
2022/02/07 06:29:58;;;;;;;4.63;4.17;;;;;;;4.29;77.80;94166.75;1778716;80;21003;-81
2022/02/07 06:32:26;;;;;;;4.27;3.60;;;;;;;4.28;78.18;94173.30;1777781;81;21527;-79
2022/02/07 06:34:55;;;;;;;4.37;3.40;;;;;;;4.30;78.10;94167.16;1749370;81;21031;-75
2022/02/07 06:37:21;;;;;;;2.90;2.40;;;;;;;4.28;78.37;94161.55;1778534;81;21624;-73
2022/02/07 06:39:48;;;;;;;5.37;2.87;;;;;;;4.24;78.68;94151.61;1778629;80;21603;-75
2022/02/07 06:42:16;;;;;;;2.90;2.10;;;;;;;4.25;78.39;94145.94;1777748;81;21066;-80
2022/02/07 06:44:43;;;;;;;2.43;1.33;;;;;;;4.31;77.74;94154.99;1777571;81;21129;-80
2022/02/07 06:47:10;;;;;;;1.47;1.23;;;;;;;4.39;77.41;94174.44;1778141;81;21564;-74
2022/02/07 06:49:36;;;;;;;1.70;1.20;;;;;;;4.47;77.11;94131.61;1779372;81;20975;-76
2022/02/07 06:52:04;;;;;;;1.20;1.10;;;;;;;4.45;76.96;94112.48;1778156;80;21257;-78
2022/02/07 06:54:31;;;;;;;1.67;1.37;;;;;;;4.46;76.80;94125.09;1778244;81;21598;-72
2022/02/07 06:56:59;;;;;;;2.17;1.33;;;;;;;4.49;76.97;94124.61;1778453;81;21094;-73
2022/02/07 06:59:27;;;;;;;1.73;1.30;;;;;;;4.50;76.98;94124.16;1750418;81;21046;-73
2022/02/07 07:01:56;;;;;;;1.57;1.00;;;;;;;4.57;76.16;94134.91;1778182;81;21098;-73
2022/02/07 07:04:27;;;;;;;3.40;3.10;;;;;;;4.66;75.98;94117.77;1778684;81;21038;-75
2022/02/07 07:06:53;;;;;;;2.27;1.00;;;;;;;4.77;75.80;94123.63;1778057;81;21112;-76
2022/02/07 07:09:20;;;;;;;2.03;1.20;;;;;;;4.87;74.87;94112.55;1778637;81;21047;-77
2022/02/07 07:11:46;;;;;;;1.00;0.90;;;;;;;4.93;74.44;94117.63;1778339;81;21057;-76
2022/02/07 07:14:18;;;;;;;1.20;0.90;;;;;;;4.90;74.39;94129.92;1777351;81;21105;-74
2022/02/07 07:16:51;;;;;;;1.00;0.97;;;;;;;4.88;75.28;94124.70;1777897;81;21480;-79
2022/02/07 07:19:21;;;;;;;1.10;0.90;;;;;;;4.82;76.05;94131.38;1779007;81;21082;-76
2022/02/07 07:21:49;;;;;;;1.60;1.40;;;;;;;4.80;75.57;94135.77;1779431;81;21476;-76
2022/02/07 07:24:17;;;;;;;0.60;0.60;;;;;;;4.70;76.21;94140.31;1779450;81;21026;-79
2022/02/07 07:26:44;;;;;;;0.70;0.60;;;;;;;4.63;75.83;94145.23;1779496;81;21054;-78
2022/02/07 07:29:17;;;;;;;1.00;0.63;;;;;;;4.62;76.23;94157.89;1778285;80;21046;-81
2022/02/07 07:31:48;;;;;;;1.03;0.63;;;;;;;4.60;76.53;94155.75;1778414;80;21058;-80
2022/02/07 07:34:16;;;;;;;0.70;0.60;;;;;;;4.58;76.48;94157.97;1777688;81;21081;-79
2022/02/07 07:36:41;;;;;;;1.70;1.00;;;;;;;4.52;77.08;94158.50;1777811;81;21141;-75
2022/02/07 07:39:12;;;;;;;1.20;1.10;;;;;;;4.44;77.47;94151.72;1777680;81;21620;-76
2022/02/07 07:41:41;;;;;;;1.47;0.70;;;;;;;4.41;77.33;94149.13;1778241;80;20994;-78
2022/02/07 07:44:10;;;;;;;1.73;1.40;;;;;;;4.26;78.38;94151.15;1777826;81;21015;-78
2022/02/07 07:46:45;;;;;;;0.50;0.47;;;;;;;4.31;78.22;94158.91;1734395;81;21007;-77
2022/02/07 07:49:32;;;;;;;0.93;0.50;;;;;;;4.25;78.40;94157.23;1777419;81;21018;-77
2022/02/07 07:52:12;;;;;;;0.80;0.50;;;;;;;4.24;78.16;94149.00;1774696;81;21465;-78
2022/02/07 07:55:20;;;;;;;1.90;0.73;;;;;;;4.23;78.23;94156.40;1774105;81;21582;-79
2022/02/07 08:02:54;;;;;;;2.53;1.50;;;;;;;4.19;78.27;94147.37;1778606;81;21016;-82
2022/02/07 08:06:13;;;;;;;1.67;0.97;;;;;;;4.15;78.53;94142.63;1776088;81;21059;-75
2022/02/07 08:07:56;;;;;;;1.73;1.00;;;;;;;4.18;78.22;94128.66;1751657;81;20982;-76
2022/02/07 08:10:40;;;;;;;3.57;2.23;;;;;;;4.21;78.50;94120.34;1778196;81;21541;-76
2022/02/07 08:12:51;;;;;;;3.40;2.20;;;;;;;4.24;78.29;94131.18;1774460;81;20987;-79
2022/02/07 08:15:18;;;;;;;13.40;8.07;;;;;;;4.23;78.34;94127.68;1777939;81;21568;-77
2022/02/07 08:17:45;;;;;;;6.03;3.83;;;;;;;4.23;78.06;94138.58;1778643;80;21046;-78
2022/02/07 08:20:13;;;;;;;5.30;3.10;;;;;;;4.21;78.40;94137.73;1778953;80;21512;-78
2022/02/07 08:22:39;;;;;;;3.10;1.47;;;;;;;4.20;78.19;94130.80;1779394;80;20975;-74
2022/02/07 08:25:08;;;;;;;0.27;0.27;;;;;;;4.20;78.19;94130.35;1779668;81;21593;-76
2022/02/07 08:27:38;;;;;;;3.83;2.40;;;;;;;4.15;78.06;94127.41;1779728;81;20971;-76
2022/02/07 08:30:06;;;;;;;4.60;1.17;;;;;;;4.09;78.37;94120.56;1779378;81;21496;-76
2022/02/07 08:32:32;;;;;;;0.83;0.70;;;;;;;4.03;78.23;94107.59;1779278;81;21077;-79
2022/02/07 08:35:01;;;;;;;0.80;0.70;;;;;;;4.00;78.50;94115.48;1779139;80;20979;-80
2022/02/07 08:37:29;;;;;;;1.20;0.73;;;;;;;3.96;78.70;94109.92;1779368;81;20999;-77
2022/02/07 08:39:55;;;;;;;3.13;2.03;;;;;;;3.90;78.43;94103.03;1779269;80;21027;-74
2022/02/07 08:42:22;;;;;;;0.67;0.63;;;;;;;3.89;78.69;94103.48;1779386;81;21519;-73
2022/02/07 08:44:48;;;;;;;0.30;0.30;;;;;;;3.88;78.44;94091.34;1779435;81;21055;-75
2022/02/07 08:47:15;;;;;;;0.53;0.50;;;;;;;3.88;78.44;94099.58;1779356;81;20994;-75
2022/02/07 08:49:43;;;;;;;0.10;0.10;;;;;;;3.90;78.45;94093.45;1779209;81;21024;-74
2022/02/07 08:52:09;;;;;;;3.43;2.73;;;;;;;3.92;78.63;94088.67;1779375;81;20964;-79
2022/02/07 08:54:36;;;;;;;0.13;0.13;;;;;;;3.94;78.68;94093.42;1779068;81;21023;-79
2022/02/07 08:57:15;;;;;;;0.60;0.40;;;;;;;3.94;78.59;94094.73;1779354;81;21029;-81
2022/02/07 08:59:52;;;;;;;1.33;0.90;;;;;;;3.92;78.49;94095.19;1778632;81;21541;-78
2022/02/07 09:02:19;;;;;;;0.40;0.20;;;;;;;3.90;78.70;94097.36;1776548;81;21475;-77
2022/02/07 09:04:50;;;;;;;0.53;0.53;;;;;;;3.89;78.76;94100.02;1777788;81;21034;-79
2022/02/07 09:07:18;;;;;;;8.07;5.43;;;;;;;3.92;78.88;94100.41;1778540;81;21026;-75
2022/02/07 09:09:44;;;;;;;1.67;1.07;;;;;;;3.91;78.67;94096.95;1778488;81;21079;-80
2022/02/07 09:12:12;;;;;;;0.50;0.40;;;;;;;3.88;78.84;94100.47;1779532;81;20994;-80
2022/02/07 09:14:54;;;;;;;0.57;0.30;;;;;;;3.80;79.30;94091.89;1779436;80;21078;-77
2022/02/07 09:17:12;;;;;;;0.60;0.40;;;;;;;3.88;79.10;94096.55;1777183;81;21094;-76
2022/02/07 09:19:38;;;;;;;0.30;0.20;;;;;;;3.90;78.83;94085.63;1779213;80;21003;-76
2022/02/07 09:22:05;;;;;;;1.17;0.07;;;;;;;3.86;78.67;94102.23;1779382;81;20983;-78
2022/02/07 09:24:32;;;;;;;0.00;0.00;;;;;;;3.88;78.82;94100.47;1779260;81;21346;-80
2022/02/07 09:26:58;;;;;;;0.30;0.20;;;;;;;3.95;78.33;94097.30;1779264;80;21524;-83
2022/02/07 09:29:25;;;;;;;0.10;0.10;;;;;;;3.96;78.56;94087.29;1779313;81;21011;-78
2022/02/07 09:31:52;;;;;;;19.37;16.60;;;;;;;3.93;78.29;94091.68;1779181;80;20987;-86
2022/02/07 09:34:18;;;;;;;5.13;3.77;;;;;;;4.01;79.30;94072.41;1779042;81;20972;-82
2022/02/07 09:36:45;;;;;;;1.10;0.90;;;;;;;4.07;79.66;94073.59;1779487;80;21006;-71
2022/02/07 09:39:11;;;;;;;1.47;1.03;;;;;;;4.08;78.87;94071.84;1779269;80;21034;-73
2022/02/07 09:41:40;;;;;;;0.50;0.43;;;;;;;4.08;78.69;94067.50;1779644;80;21014;-75
2022/02/07 09:44:08;;;;;;;0.33;0.33;;;;;;;4.11;78.60;94062.22;1779654;81;21022;-77
2022/02/07 09:46:43;;;;;;;0.10;0.10;;;;;;;4.18;78.09;94055.56;1779369;80;21030;-76
2022/02/07 09:49:04;;;;;;;1.20;0.53;;;;;;;4.15;77.66;94057.79;1778195;81;21058;-80
2022/02/07 09:51:31;;;;;;;0.20;0.20;;;;;;;4.19;77.82;94046.41;1779694;80;21007;-77
2022/02/07 09:53:58;;;;;;;0.30;0.20;;;;;;;4.27;77.47;94051.03;1779295;80;21023;-73
2022/02/07 09:56:27;;;;;;;0.77;0.50;;;;;;;4.28;77.47;94041.45;1779619;81;21058;-80
2022/02/07 09:58:54;;;;;;;1.13;0.80;;;;;;;4.22;76.89;94047.66;1779335;81;21015;-79
2022/02/07 10:01:33;;;;;;;0.37;0.30;;;;;;;4.39;77.29;94046.03;1779248;81;21568;-79
2022/02/07 10:04:05;;;;;;;0.30;0.30;;;;;;;4.65;77.01;94040.72;1777790;81;20988;-80
2022/02/07 10:06:37;;;;;;;0.77;0.47;;;;;;;4.83;76.55;94053.39;1779052;81;21026;-79
2022/02/07 10:14:28;;;;;;;1.30;0.90;;;;;;;5.09;76.56;94048.92;1779593;80;20987;-79
2022/02/07 10:17:22;;;;;;;1.27;1.00;;;;;;;5.17;76.04;94050.91;1778590;81;21015;-79
2022/02/07 10:19:38;;;;;;;2.60;1.80;;;;;;;5.13;75.55;94062.31;1775294;81;21532;-80
2022/02/07 10:41:53;;;;;;;0.73;0.73;;;;;;;4.75;75.47;94101.89;1778940;81;21460;-79
2022/02/07 10:44:58;;;;;;;2.47;2.20;;;;;;;4.58;75.81;94105.73;1776714;81;21019;-79
2022/02/07 10:47:26;;;;;;;3.63;1.90;;;;;;;4.57;76.52;94119.69;1778076;81;21050;-79
2022/02/07 10:50:03;;;;;;;2.43;1.17;;;;;;;4.45;77.31;94129.92;1778982;81;20995;-79
2022/02/07 10:52:53;;;;;;;2.83;1.97;;;;;;;4.29;77.58;94129.34;1779275;81;21031;-79
2022/02/07 10:55:30;;;;;;;2.23;1.80;;;;;;;4.20;77.71;94139.94;1779370;81;21456;-79
2022/02/07 10:58:00;;;;;;;2.43;2.17;;;;;;;4.17;78.51;94146.53;1779517;80;21022;-79
2022/02/07 11:00:53;;;;;;;1.77;1.40;;;;;;;4.16;78.90;94152.20;1779445;81;21501;-79
2022/02/07 11:03:17;;;;;;;2.23;1.63;;;;;;;4.19;78.49;94161.28;1777102;81;21023;-79
2022/02/07 11:05:47;;;;;;;2.37;1.93;;;;;;;4.16;78.62;94160.45;1778903;81;20991;-78
2022/02/07 11:08:37;;;;;;;0.40;0.30;;;;;;;4.14;78.06;94161.80;1779093;81;21497;-79
2022/02/07 11:19:27;;;;;;;1.00;0.70;;;;;;;4.00;78.86;94169.84;1779622;81;21037;-78
2022/02/07 11:27:37;;;;;;;7.83;5.67;;;;;;;3.78;78.22;94181.50;1779278;81;21122;-78
2022/02/07 11:30:11;;;;;;;1.60;0.77;;;;;;;3.68;78.43;94171.22;1779461;81;21556;-78
2022/02/07 11:32:48;;;;;;;0.20;0.20;;;;;;;3.75;78.93;94170.67;1778431;80;21103;-78
2022/02/07 11:35:18;;;;;;;0.80;0.40;;;;;;;3.82;78.95;94171.00;1779392;80;21027;-78
2022/02/07 11:38:08;;;;;;;1.23;0.90;;;;;;;3.89;78.40;94173.94;1779403;80;20983;-78
2022/02/07 11:40:48;;;;;;;5.23;2.93;;;;;;;3.89;78.56;94170.02;1770111;81;21066;-79
2022/02/07 11:43:24;;;;;;;2.17;1.90;;;;;;;3.86;79.57;94171.38;1777889;81;21026;-79
2022/02/07 11:46:04;;;;;;;3.10;2.00;;;;;;;3.83;79.48;94150.56;1779438;81;21049;-78
2022/02/07 11:48:43;;;;;;;1.97;1.60;;;;;;;3.80;78.82;94147.98;1779432;80;20982;-79
2022/02/07 11:51:17;;;;;;;2.20;1.67;;;;;;;3.79;78.79;94151.94;1778997;81;20995;-78
2022/02/07 11:53:53;;;;;;;1.60;1.30;;;;;;;3.75;78.67;94164.59;1779417;81;21452;-78
2022/02/07 11:59:11;;;;;;;10.05;4.30;;;;;;;3.49;79.37;94164.99;1779261;81;21061;-82
2022/02/07 12:02:02;;;;;;;9.70;4.92;;;;;;;3.42;79.74;94155.08;1778963;81;21031;-84
2022/02/07 12:04:43;;;;;;;9.20;5.03;;;;;;;3.38;80.55;94154.73;1778957;81;21005;-78
2022/02/07 12:07:27;;;;;;;33.80;17.30;;;;;;;3.53;80.96;94162.33;1779052;81;21520;-77
2022/02/07 12:10:13;;;;;;;2.08;0.82;;;;;;;3.66;81.37;94156.03;1779776;80;21003;-77
2022/02/07 12:12:49;;;;;;;24.43;11.50;;;;;;;3.87;79.90;94159.19;1779485;80;21046;-78
2022/02/07 12:15:32;;;;;;;0.80;0.60;;;;;;;4.02;79.26;94151.56;1779511;81;20983;-78
2022/02/07 12:17:58;;;;;;;18.50;10.77;;;;;;;4.10;78.71;94154.44;1778295;81;21019;-78
2022/02/07 12:20:32;;;;;;;1.92;1.57;;;;;;;4.16;78.50;94151.31;1779568;81;21042;-78
2022/02/07 12:23:09;;;;;;;2.87;2.57;;;;;;;4.28;78.42;94153.30;1779226;81;21146;-77
2022/02/07 12:25:49;;;;;;;3.13;2.00;;;;;;;4.36;77.81;94167.94;1779586;80;21010;-78
2022/02/07 12:28:35;;;;;;;1.80;1.47;;;;;;;4.41;77.58;94164.80;1779296;81;21464;-78
2022/02/07 12:31:10;;;;;;;8.40;5.23;;;;;;;4.36;77.58;94171.86;1779325;81;20991;-78
2022/02/07 12:33:32;;;;;;;5.17;3.30;;;;;;;4.39;77.70;94168.77;1777665;80;21465;-78
2022/02/07 12:36:00;;;;;;;1.33;1.20;;;;;;;4.42;77.74;94181.77;1779104;81;21066;-78
2022/02/07 12:38:33;;;;;;;2.30;1.83;;;;;;;4.33;77.32;94184.10;1779367;80;21018;-78
2022/02/07 12:41:03;;;;;;;3.08;2.65;;;;;;;4.30;77.56;94191.96;1779486;80;21022;-78
2022/02/07 12:43:35;;;;;;;3.40;2.83;;;;;;;4.32;77.80;94190.19;1779349;80;21050;-78
2022/02/07 12:46:06;;;;;;;2.47;2.17;;;;;;;4.40;78.04;94191.36;1779806;80;21099;-78
2022/02/07 12:48:38;;;;;;;2.40;1.33;;;;;;;4.45;77.97;94197.82;1779236;80;21022;-78
2022/02/07 12:51:05;;;;;;;3.10;2.23;;;;;;;4.39;77.79;94196.63;1779444;80;21521;-78
2022/02/07 12:53:33;;;;;;;4.33;3.07;;;;;;;4.39;78.24;94196.63;1779370;81;21039;-78
2022/02/07 12:56:05;;;;;;;3.00;2.43;;;;;;;4.36;78.23;94196.66;1779265;80;21087;-77
2022/02/07 12:58:40;;;;;;;3.83;2.60;;;;;;;4.38;78.43;94194.89;1779354;81;21038;-78
2022/02/07 13:01:26;;;;;;;1.43;1.30;;;;;;;4.45;78.40;94197.82;1779527;81;21552;-77
2022/02/07 13:04:07;;;;;;;1.77;1.53;;;;;;;4.44;77.50;94200.02;1779222;80;20995;-77
2022/02/07 13:06:43;;;;;;;2.10;1.90;;;;;;;4.42;77.89;94204.41;1779489;81;20983;-78
2022/02/07 13:09:32;;;;;;;2.63;2.20;;;;;;;4.37;78.11;94212.77;1779331;81;20979;-78
2022/02/07 13:12:13;;;;;;;3.37;1.97;;;;;;;4.36;77.75;94213.22;1779369;80;21488;-78
2022/02/07 13:14:38;;;;;;;2.30;2.10;;;;;;;4.29;78.01;94210.28;1778118;81;21121;-78
2022/02/07 13:17:06;;;;;;;3.27;2.80;;;;;;;4.30;78.48;94210.69;1779156;80;21529;-78
2022/02/07 13:19:39;;;;;;;5.60;5.00;;;;;;;4.27;78.16;94218.13;1779412;81;21038;-78
2022/02/07 13:22:08;;;;;;;2.40;2.02;;;;;;;4.24;78.03;94229.94;1779519;81;21022;-78
2022/02/07 13:24:38;;;;;;;1.70;1.60;;;;;;;4.14;78.45;94223.14;1779411;80;21007;-78
2022/02/07 13:27:13;;;;;;;0.60;0.60;;;;;;;4.07;78.34;94231.95;1779380;80;20987;-78
2022/02/07 13:29:46;;;;;;;1.10;0.90;;;;;;;4.02;78.05;94231.16;1779239;80;21019;-77
2022/02/07 13:32:16;;;;;;;1.10;1.00;;;;;;;3.90;78.21;94233.50;1779155;80;21027;-78
2022/02/07 13:34:46;;;;;;;1.23;0.87;;;;;;;3.90;78.09;94236.97;1779358;80;21065;-78
2022/02/07 13:37:24;;;;;;;1.50;1.20;;;;;;;3.74;78.41;94246.36;1779265;80;21396;-77
2022/02/07 13:40:08;;;;;;;10.03;7.97;;;;;;;3.71;78.52;94251.18;1779390;81;21066;-78
2022/02/07 13:42:40;;;;;;;7.73;5.10;;;;;;;3.59;78.84;94261.33;1779610;81;21027;-78
2022/02/07 13:45:12;;;;;;;5.90;4.00;;;;;;;3.53;79.39;94265.75;1779403;80;20982;-77
2022/02/07 13:47:45;;;;;;;6.60;4.37;;;;;;;3.42;79.95;94266.75;1779484;80;20975;-78
2022/02/07 13:50:16;;;;;;;2.97;2.10;;;;;;;3.43;80.01;94275.47;1779312;80;20986;-74
2022/02/07 13:52:50;;;;;;;3.10;1.93;;;;;;;3.34;79.32;94290.76;1779318;81;21106;-78
2022/02/07 13:55:28;;;;;;;;;;;;;;;3.22;79.87;94325.64;1782115;81;21038;-77
2022/02/07 13:58:06;;;;;;;5.37;2.43;;;;;;;2.96;79.83;94369.36;1779379;80;20097;-77
2022/02/07 14:00:40;;;;;;;8.50;4.27;;;;;;;2.42;79.20;94394.94;1779667;80;21050;-77
2022/02/07 14:03:21;;;;;;;4.57;3.03;;;;;;;1.94;79.91;94388.70;1768932;81;21031;-77
2022/02/07 14:06:06;;;;;;;1.97;1.43;;;;;;;1.75;80.75;94408.75;1779191;81;21556;-78
2022/02/07 14:08:49;;;;;;;2.10;1.53;;;;;;;1.45;81.59;94416.21;1776748;81;21010;-78
2022/02/07 14:11:21;;;;;;;2.03;1.43;;;;;;;1.24;82.44;94421.89;1779374;81;20999;-75
2022/02/07 14:13:51;;;;;;;1.50;1.30;;;;;;;1.07;82.77;94429.70;1779407;81;21057;-78